sensor_id;sensor_type;location;lat;lon;timestamp;pressure;altitude;pressure_sealevel;temperature;humidity
70127;BME280;57491;42.694;23.314;2022-12-20T00:01:35;96949.81;;;1.42;63.51
70127;BME280;57491;42.694;23.314;2022-12-20T00:04:03;96956.06;;;1.54;63.93
70127;BME280;57491;42.694;23.314;2022-12-20T00:06:32;96943.03;;;1.41;63.03
70127;BME280;57491;42.694;23.314;2022-12-20T00:09:01;96951.84;;;1.35;63.17
70127;BME280;57491;42.694;23.314;2022-12-20T00:11:29;96951.72;;;1.39;63.70
70127;BME280;57491;42.694;23.314;2022-12-20T00:13:56;96948.25;;;1.40;63.05
70127;BME280;57491;42.694;23.314;2022-12-20T00:16:25;96938.59;;;1.27;63.38
70127;BME280;57491;42.694;23.314;2022-12-20T00:18:55;96965.13;;;1.44;63.00
70127;BME280;57491;42.694;23.314;2022-12-20T00:21:23;96965.63;;;1.50;62.28
70127;BME280;57491;42.694;23.314;2022-12-20T00:23:50;96954.41;;;1.53;61.89
70127;BME280;57491;42.694;23.314;2022-12-20T00:26:20;96961.72;;;1.60;61.99
70127;BME280;57491;42.694;23.314;2022-12-20T00:28:47;96969.09;;;1.49;61.50
70127;BME280;57491;42.694;23.314;2022-12-20T00:31:16;96969.09;;;1.49;61.54
70127;BME280;57491;42.694;23.314;2022-12-20T00:33:44;96959.53;;;1.53;61.38
70127;BME280;57491;42.694;23.314;2022-12-20T00:36:14;96959.53;;;1.53;60.90
70127;BME280;57491;42.694;23.314;2022-12-20T00:38:43;96964.50;;;1.56;60.91
70127;BME280;57491;42.694;23.314;2022-12-20T00:41:13;96971.50;;;1.69;61.27
70127;BME280;57491;42.694;23.314;2022-12-20T00:43:40;96954.97;;;1.75;60.13
70127;BME280;57491;42.694;23.314;2022-12-20T00:46:09;96960.25;;;1.72;60.30
70127;BME280;57491;42.694;23.314;2022-12-20T00:48:37;96960.59;;;1.82;61.05
70127;BME280;57491;42.694;23.314;2022-12-20T00:51:07;96960.94;;;1.75;59.99
70127;BME280;57491;42.694;23.314;2022-12-20T00:53:36;96939.03;;;1.53;60.11
70127;BME280;57491;42.694;23.314;2022-12-20T00:56:05;96950.47;;;1.63;60.22
70127;BME280;57491;42.694;23.314;2022-12-20T00:58:33;96958.91;;;1.65;60.21
70127;BME280;57491;42.694;23.314;2022-12-20T01:01:01;96947.78;;;1.31;60.49
70127;BME280;57491;42.694;23.314;2022-12-20T01:03:28;96965.94;;;1.44;61.23
70127;BME280;57491;42.694;23.314;2022-12-20T01:05:57;96963.00;;;1.52;60.82
70127;BME280;57491;42.694;23.314;2022-12-20T01:08:26;96968.75;;;1.40;61.26
70127;BME280;57491;42.694;23.314;2022-12-20T01:11:03;96958.97;;;1.30;61.20
70127;BME280;57491;42.694;23.314;2022-12-20T01:13:32;96962.06;;;1.20;61.22
70127;BME280;57491;42.694;23.314;2022-12-20T01:16:03;96952.03;;;1.15;61.11
70127;BME280;57491;42.694;23.314;2022-12-20T01:18:31;96952.94;;;1.14;61.71
70127;BME280;57491;42.694;23.314;2022-12-20T01:21:01;96933.13;;;0.83;61.73
70127;BME280;57491;42.694;23.314;2022-12-20T01:23:29;96931.16;;;0.88;61.65
70127;BME280;57491;42.694;23.314;2022-12-20T01:25:57;96943.81;;;1.09;61.95
70127;BME280;57491;42.694;23.314;2022-12-20T01:28:26;96934.13;;;0.98;60.94
70127;BME280;57491;42.694;23.314;2022-12-20T01:30:54;96942.75;;;1.13;61.46
70127;BME280;57491;42.694;23.314;2022-12-20T01:33:21;96936.06;;;1.10;61.42
70127;BME280;57491;42.694;23.314;2022-12-20T01:35:56;96926.41;;;1.15;61.73
70127;BME280;57491;42.694;23.314;2022-12-20T01:38:24;96933.19;;;0.82;62.01
70127;BME280;57491;42.694;23.314;2022-12-20T01:40:51;96931.16;;;0.88;61.19
70127;BME280;57491;42.694;23.314;2022-12-20T01:43:20;96920.69;;;0.93;60.65
70127;BME280;57491;42.694;23.314;2022-12-20T01:45:48;96927.25;;;0.99;60.77
70127;BME280;57491;42.694;23.314;2022-12-20T01:48:17;96915.34;;;0.98;60.66
70127;BME280;57491;42.694;23.314;2022-12-20T01:50:47;96921.16;;;1.01;60.83
70127;BME280;57491;42.694;23.314;2022-12-20T01:53:14;96917.59;;;1.04;60.73
70127;BME280;57491;42.694;23.314;2022-12-20T01:55:43;96914.34;;;1.00;60.71
70127;BME280;57491;42.694;23.314;2022-12-20T01:58:13;96906.06;;;0.78;60.98
70127;BME280;57491;42.694;23.314;2022-12-20T02:00:42;96920.16;;;0.86;60.71
70127;BME280;57491;42.694;23.314;2022-12-20T02:03:12;96907.00;;;0.94;61.25
70127;BME280;57491;42.694;23.314;2022-12-20T02:05:41;96886.66;;;0.74;61.15
70127;BME280;57491;42.694;23.314;2022-12-20T02:08:12;96903.06;;;0.87;61.45
70127;BME280;57491;42.694;23.314;2022-12-20T02:10:55;96882.59;;;0.87;61.11
70127;BME280;57491;42.694;23.314;2022-12-20T02:13:34;96893.88;;;1.00;61.48
70127;BME280;57491;42.694;23.314;2022-12-20T02:16:03;96886.19;;;0.66;61.25
70127;BME280;57491;42.694;23.314;2022-12-20T02:18:36;96902.63;;;0.79;62.03
70127;BME280;57491;42.694;23.314;2022-12-20T02:21:12;96914.44;;;0.81;61.55
70127;BME280;57491;42.694;23.314;2022-12-20T02:24:10;96903.84;;;0.89;61.37
70127;BME280;57491;42.694;23.314;2022-12-20T02:27:04;96909.56;;;0.94;61.03
70127;BME280;57491;42.694;23.314;2022-12-20T02:29:39;96889.97;;;0.76;60.95
70127;BME280;57491;42.694;23.314;2022-12-20T02:32:16;96895.59;;;0.65;61.03
70127;BME280;57491;42.694;23.314;2022-12-20T02:34:45;96909.41;;;0.63;61.42
70127;BME280;57491;42.694;23.314;2022-12-20T02:37:12;96908.78;;;0.75;61.08
70127;BME280;57491;42.694;23.314;2022-12-20T02:39:41;96901.41;;;0.86;62.26
70127;BME280;57491;42.694;23.314;2022-12-20T02:42:12;96889.16;;;0.75;62.17
70127;BME280;57491;42.694;23.314;2022-12-20T02:44:42;96897.06;;;0.71;61.14
70127;BME280;57491;42.694;23.314;2022-12-20T02:47:32;96901.56;;;0.83;60.81
70127;BME280;57491;42.694;23.314;2022-12-20T02:50:01;96889.88;;;0.95;60.67
70127;BME280;57491;42.694;23.314;2022-12-20T02:52:29;96891.47;;;0.97;60.52
70127;BME280;57491;42.694;23.314;2022-12-20T02:54:58;96897.66;;;0.93;60.73
70127;BME280;57491;42.694;23.314;2022-12-20T02:57:31;96882.13;;;0.96;60.19
70127;BME280;57491;42.694;23.314;2022-12-20T03:00:04;96893.75;;;1.03;59.92
70127;BME280;57491;42.694;23.314;2022-12-20T03:02:34;96883.41;;;0.87;60.03
70127;BME280;57491;42.694;23.314;2022-12-20T03:05:15;96891.00;;;1.06;60.86
70127;BME280;57491;42.694;23.314;2022-12-20T03:07:42;96879.34;;;0.83;60.42
70127;BME280;57491;42.694;23.314;2022-12-20T03:10:10;96888.63;;;1.03;60.88
70127;BME280;57491;42.694;23.314;2022-12-20T03:12:37;96884.16;;;1.07;60.52
70127;BME280;57491;42.694;23.314;2022-12-20T03:15:05;96878.72;;;0.96;61.52
70127;BME280;57491;42.694;23.314;2022-12-20T03:17:33;96874.28;;;0.82;61.50
70127;BME280;57491;42.694;23.314;2022-12-20T03:20:00;96882.91;;;0.81;61.88
70127;BME280;57491;42.694;23.314;2022-12-20T03:22:27;96876.25;;;0.77;62.28
70127;BME280;57491;42.694;23.314;2022-12-20T03:24:55;96878.38;;;0.69;61.82
70127;BME280;57491;42.694;23.314;2022-12-20T03:27:22;96871.91;;;0.62;62.02
70127;BME280;57491;42.694;23.314;2022-12-20T03:29:50;96874.25;;;0.66;62.41
70127;BME280;57491;42.694;23.314;2022-12-20T03:32:17;96863.47;;;0.60;61.46
70127;BME280;57491;42.694;23.314;2022-12-20T03:34:46;96876.13;;;0.63;61.40
70127;BME280;57491;42.694;23.314;2022-12-20T03:37:13;96866.56;;;0.66;61.73
70127;BME280;57491;42.694;23.314;2022-12-20T03:39:41;96874.38;;;0.63;61.52
70127;BME280;57491;42.694;23.314;2022-12-20T03:42:08;96871.28;;;0.57;61.74
70127;BME280;57491;42.694;23.314;2022-12-20T03:44:35;96868.25;;;0.31;62.08
70127;BME280;57491;42.694;23.314;2022-12-20T03:47:02;96871.47;;;0.18;62.17
70127;BME280;57491;42.694;23.314;2022-12-20T03:49:29;96873.22;;;0.34;62.39
70127;BME280;57491;42.694;23.314;2022-12-20T03:51:58;96875.00;;;0.32;61.70
70127;BME280;57491;42.694;23.314;2022-12-20T03:54:25;96869.69;;;0.37;62.29
70127;BME280;57491;42.694;23.314;2022-12-20T03:56:52;96853.88;;;0.46;62.18
70127;BME280;57491;42.694;23.314;2022-12-20T03:59:19;96859.09;;;0.44;61.99
70127;BME280;57491;42.694;23.314;2022-12-20T04:01:47;96859.84;;;0.47;62.22
70127;BME280;57491;42.694;23.314;2022-12-20T04:04:14;96856.22;;;0.33;61.95
70127;BME280;57491;42.694;23.314;2022-12-20T04:06:41;96866.28;;;0.36;61.37
70127;BME280;57491;42.694;23.314;2022-12-20T04:09:10;96881.81;;;0.51;61.30
70127;BME280;57491;42.694;23.314;2022-12-20T04:11:37;96866.25;;;0.55;60.65
70127;BME280;57491;42.694;23.314;2022-12-20T04:14:05;96878.34;;;0.52;60.75
70127;BME280;57491;42.694;23.314;2022-12-20T04:16:33;96873.41;;;0.49;61.21
70127;BME280;57491;42.694;23.314;2022-12-20T04:19:00;96832.84;;;0.05;62.12
70127;BME280;57491;42.694;23.314;2022-12-20T04:21:30;96864.97;;;0.11;62.42
70127;BME280;57491;42.694;23.314;2022-12-20T04:23:58;96866.00;;;0.25;63.06
70127;BME280;57491;42.694;23.314;2022-12-20T04:26:26;96865.38;;;0.20;62.56
70127;BME280;57491;42.694;23.314;2022-12-20T04:28:53;96866.22;;;0.21;62.40
70127;BME280;57491;42.694;23.314;2022-12-20T04:31:21;96854.53;;;0.15;63.07
70127;BME280;57491;42.694;23.314;2022-12-20T04:33:48;96860.59;;;0.31;61.98
70127;BME280;57491;42.694;23.314;2022-12-20T04:36:15;96850.25;;;0.33;61.93
70127;BME280;57491;42.694;23.314;2022-12-20T04:38:42;96845.91;;;0.18;62.08
70127;BME280;57491;42.694;23.314;2022-12-20T04:41:09;96858.38;;;0.24;61.83
70127;BME280;57491;42.694;23.314;2022-12-20T04:43:49;96853.34;;;0.22;62.48
70127;BME280;57491;42.694;23.314;2022-12-20T04:46:17;96856.38;;;0.30;61.37
70127;BME280;57491;42.694;23.314;2022-12-20T04:48:44;96854.03;;;0.26;62.06
70127;BME280;57491;42.694;23.314;2022-12-20T04:51:11;96855.97;;;0.21;61.63
70127;BME280;57491;42.694;23.314;2022-12-20T04:53:39;96855.59;;;0.28;61.49
70127;BME280;57491;42.694;23.314;2022-12-20T04:56:15;96860.47;;;0.16;61.72
70127;BME280;57491;42.694;23.314;2022-12-20T04:58:43;96857.75;;;0.19;63.09
70127;BME280;57491;42.694;23.314;2022-12-20T05:01:12;96859.19;;;0.07;62.39
70127;BME280;57491;42.694;23.314;2022-12-20T05:03:39;96853.25;;;-0.12;62.44
70127;BME280;57491;42.694;23.314;2022-12-20T05:06:07;96855.19;;;-0.17;62.99
70127;BME280;57491;42.694;23.314;2022-12-20T05:08:34;96854.38;;;-0.36;62.92
70127;BME280;57491;42.694;23.314;2022-12-20T05:11:02;96861.97;;;-0.35;64.09
70127;BME280;57491;42.694;23.314;2022-12-20T05:13:30;96861.75;;;-0.30;64.06
70127;BME280;57491;42.694;23.314;2022-12-20T05:15:57;96865.09;;;-0.28;63.22
70127;BME280;57491;42.694;23.314;2022-12-20T05:18:26;96856.03;;;-0.35;63.65
70127;BME280;57491;42.694;23.314;2022-12-20T05:20:57;96852.03;;;-0.41;64.08
70127;BME280;57491;42.694;23.314;2022-12-20T05:23:42;96863.81;;;-0.57;64.29
70127;BME280;57491;42.694;23.314;2022-12-20T05:26:29;96868.72;;;-0.53;63.69
70127;BME280;57491;42.694;23.314;2022-12-20T05:28:57;96834.97;;;-0.40;64.96
70127;BME280;57491;42.694;23.314;2022-12-20T05:31:24;96857.13;;;-0.22;62.82
70127;BME280;57491;42.694;23.314;2022-12-20T05:33:52;96863.06;;;-0.22;63.21
70127;BME280;57491;42.694;23.314;2022-12-20T05:36:19;96864.59;;;-0.18;63.30
70127;BME280;57491;42.694;23.314;2022-12-20T05:38:47;96856.00;;;0.02;63.17
70127;BME280;57491;42.694;23.314;2022-12-20T05:41:14;96859.00;;;-0.45;63.82
70127;BME280;57491;42.694;23.314;2022-12-20T05:43:41;96860.09;;;-0.31;63.36
70127;BME280;57491;42.694;23.314;2022-12-20T05:46:09;96849.50;;;-0.41;63.26
70127;BME280;57491;42.694;23.314;2022-12-20T05:48:36;96863.06;;;-0.40;63.36
70127;BME280;57491;42.694;23.314;2022-12-20T05:51:05;96872.88;;;-0.31;63.68
70127;BME280;57491;42.694;23.314;2022-12-20T05:53:32;96874.00;;;-0.18;62.87
70127;BME280;57491;42.694;23.314;2022-12-20T05:56:00;96870.88;;;-0.25;62.74
70127;BME280;57491;42.694;23.314;2022-12-20T05:58:27;96869.00;;;-0.21;62.86
70127;BME280;57491;42.694;23.314;2022-12-20T06:00:54;96869.31;;;-0.27;63.27
70127;BME280;57491;42.694;23.314;2022-12-20T06:03:22;96872.59;;;-0.25;62.99
70127;BME280;57491;42.694;23.314;2022-12-20T06:05:49;96873.03;;;-0.34;62.92
70127;BME280;57491;42.694;23.314;2022-12-20T06:08:17;96866.19;;;-0.15;63.22
70127;BME280;57491;42.694;23.314;2022-12-20T06:10:46;96869.63;;;0.03;62.65
70127;BME280;57491;42.694;23.314;2022-12-20T06:13:15;96863.78;;;-0.18;62.43
70127;BME280;57491;42.694;23.314;2022-12-20T06:15:43;96866.59;;;-0.06;62.66
70127;BME280;57491;42.694;23.314;2022-12-20T06:18:10;96866.28;;;0.00;62.28
70127;BME280;57491;42.694;23.314;2022-12-20T06:20:37;96869.06;;;-0.04;62.26
70127;BME280;57491;42.694;23.314;2022-12-20T06:23:05;96879.91;;;0.01;62.03
70127;BME280;57491;42.694;23.314;2022-12-20T06:25:33;96877.03;;;-0.10;63.38
70127;BME280;57491;42.694;23.314;2022-12-20T06:28:00;96880.53;;;-0.31;63.42
70127;BME280;57491;42.694;23.314;2022-12-20T06:30:27;96877.72;;;-0.25;62.58
70127;BME280;57491;42.694;23.314;2022-12-20T06:32:54;96836.13;;;-0.66;62.96
70127;BME280;57491;42.694;23.314;2022-12-20T06:35:21;96862.16;;;-0.39;62.68
70127;BME280;57491;42.694;23.314;2022-12-20T06:37:48;96871.06;;;0.08;62.59
70127;BME280;57491;42.694;23.314;2022-12-20T06:40:15;96862.19;;;0.15;61.27
70127;BME280;57491;42.694;23.314;2022-12-20T06:42:44;96864.44;;;0.57;60.30
70127;BME280;57491;42.694;23.314;2022-12-20T06:45:11;96866.13;;;1.08;59.27
70127;BME280;57491;42.694;23.314;2022-12-20T06:47:39;96859.28;;;1.09;57.59
70127;BME280;57491;42.694;23.314;2022-12-20T06:50:06;96850.97;;;1.54;56.91
70127;BME280;57491;42.694;23.314;2022-12-20T06:52:34;96836.03;;;1.93;55.45
70127;BME280;57491;42.694;23.314;2022-12-20T06:55:01;96841.47;;;2.48;54.76
70127;BME280;57491;42.694;23.314;2022-12-20T06:57:28;96840.84;;;2.89;53.14
70127;BME280;57491;42.694;23.314;2022-12-20T06:59:56;96847.88;;;3.29;52.15
70127;BME280;57491;42.694;23.314;2022-12-20T07:02:24;96831.44;;;3.60;51.55
70127;BME280;57491;42.694;23.314;2022-12-20T07:04:51;96840.16;;;3.72;49.82
70127;BME280;57491;42.694;23.314;2022-12-20T07:07:18;96836.94;;;3.82;49.35
70127;BME280;57491;42.694;23.314;2022-12-20T07:09:45;96832.78;;;4.21;48.35
70127;BME280;57491;42.694;23.314;2022-12-20T07:12:12;96837.91;;;4.21;48.09
70127;BME280;57491;42.694;23.314;2022-12-20T07:14:39;96822.75;;;4.43;47.47
70127;BME280;57491;42.694;23.314;2022-12-20T07:17:08;96829.97;;;4.50;47.22
70127;BME280;57491;42.694;23.314;2022-12-20T07:19:35;96833.00;;;4.57;45.83
70127;BME280;57491;42.694;23.314;2022-12-20T07:22:03;96826.75;;;4.34;46.47
70127;BME280;57491;42.694;23.314;2022-12-20T07:24:30;96829.34;;;4.47;46.22
70127;BME280;57491;42.694;23.314;2022-12-20T07:26:57;96833.19;;;4.54;45.68
70127;BME280;57491;42.694;23.314;2022-12-20T07:29:25;96835.19;;;4.76;45.45
70127;BME280;57491;42.694;23.314;2022-12-20T07:31:52;96830.00;;;4.24;46.29
70127;BME280;57491;42.694;23.314;2022-12-20T07:34:21;96818.81;;;4.11;46.90
70127;BME280;57491;42.694;23.314;2022-12-20T07:36:48;96835.38;;;4.33;47.78
70127;BME280;57491;42.694;23.314;2022-12-20T07:39:15;96819.72;;;4.63;46.45
70127;BME280;57491;42.694;23.314;2022-12-20T07:41:44;96826.59;;;5.40;45.08
70127;BME280;57491;42.694;23.314;2022-12-20T07:44:11;96826.31;;;5.68;43.62
70127;BME280;57491;42.694;23.314;2022-12-20T07:46:38;96830.53;;;6.18;43.11
70127;BME280;57491;42.694;23.314;2022-12-20T07:49:05;96829.31;;;6.59;40.70
70127;BME280;57491;42.694;23.314;2022-12-20T07:51:36;96808.97;;;6.43;40.81
70127;BME280;57491;42.694;23.314;2022-12-20T07:54:05;96822.25;;;6.85;40.60
70127;BME280;57491;42.694;23.314;2022-12-20T07:56:37;96814.59;;;7.40;40.47
70127;BME280;57491;42.694;23.314;2022-12-20T07:59:06;96818.81;;;7.52;38.95
70127;BME280;57491;42.694;23.314;2022-12-20T08:01:36;96811.66;;;7.78;39.23
70127;BME280;57491;42.694;23.314;2022-12-20T08:04:07;96811.56;;;8.23;38.10
70127;BME280;57491;42.694;23.314;2022-12-20T08:06:38;96787.97;;;7.83;37.67
70127;BME280;57491;42.694;23.314;2022-12-20T08:09:06;96795.88;;;8.35;37.98
70127;BME280;57491;42.694;23.314;2022-12-20T08:11:36;96804.03;;;8.63;35.50
70127;BME280;57491;42.694;23.314;2022-12-20T08:14:04;96797.38;;;8.38;35.68
70127;BME280;57491;42.694;23.314;2022-12-20T08:16:33;96801.09;;;8.56;36.00
70127;BME280;57491;42.694;23.314;2022-12-20T08:19:00;96795.56;;;9.02;36.43
70127;BME280;57491;42.694;23.314;2022-12-20T08:21:28;96790.59;;;9.40;34.21
70127;BME280;57491;42.694;23.314;2022-12-20T08:23:57;96799.22;;;9.91;34.41
70127;BME280;57491;42.694;23.314;2022-12-20T08:26:24;96796.81;;;9.99;34.28
70127;BME280;57491;42.694;23.314;2022-12-20T08:28:51;96793.47;;;10.37;33.61
70127;BME280;57491;42.694;23.314;2022-12-20T08:31:18;96791.25;;;10.22;33.05
70127;BME280;57491;42.694;23.314;2022-12-20T08:33:45;96784.31;;;10.71;31.75
70127;BME280;57491;42.694;23.314;2022-12-20T08:36:13;96785.16;;;11.28;31.99
70127;BME280;57491;42.694;23.314;2022-12-20T08:38:40;96779.19;;;11.54;31.95
70127;BME280;57491;42.694;23.314;2022-12-20T08:41:11;96776.97;;;11.96;30.22
70127;BME280;57491;42.694;23.314;2022-12-20T08:43:39;96774.25;;;12.33;28.82
70127;BME280;57491;42.694;23.314;2022-12-20T08:46:07;96780.44;;;11.87;28.88
70127;BME280;57491;42.694;23.314;2022-12-20T08:48:35;96778.09;;;11.57;29.87
70127;BME280;57491;42.694;23.314;2022-12-20T08:51:04;96776.41;;;11.75;30.15
70127;BME280;57491;42.694;23.314;2022-12-20T08:53:33;96763.13;;;11.59;29.39
70127;BME280;57491;42.694;23.314;2022-12-20T08:56:04;96782.78;;;11.44;30.00
70127;BME280;57491;42.694;23.314;2022-12-20T08:58:33;96769.91;;;11.42;29.89
70127;BME280;57491;42.694;23.314;2022-12-20T09:01:02;96774.44;;;12.04;29.96
70127;BME280;57491;42.694;23.314;2022-12-20T09:03:30;96752.03;;;12.12;28.57
70127;BME280;57491;42.694;23.314;2022-12-20T09:05:58;96767.44;;;12.93;27.39
70127;BME280;57491;42.694;23.314;2022-12-20T09:08:25;96759.41;;;13.64;27.66
70127;BME280;57491;42.694;23.314;2022-12-20T09:10:53;96746.59;;;14.69;26.81
70127;BME280;57491;42.694;23.314;2022-12-20T09:13:20;96749.19;;;15.10;24.45
70127;BME280;57491;42.694;23.314;2022-12-20T09:15:48;96747.22;;;14.96;25.64
70127;BME280;57491;42.694;23.314;2022-12-20T09:18:15;96725.69;;;15.57;24.71
70127;BME280;57491;42.694;23.314;2022-12-20T09:20:43;96734.47;;;16.34;23.65
70127;BME280;57491;42.694;23.314;2022-12-20T09:23:10;96734.31;;;16.81;21.96
70127;BME280;57491;42.694;23.314;2022-12-20T09:25:38;96735.53;;;16.47;22.38
70127;BME280;57491;42.694;23.314;2022-12-20T09:28:05;96730.22;;;16.56;22.02
70127;BME280;57491;42.694;23.314;2022-12-20T09:30:32;96729.84;;;17.04;21.90
70127;BME280;57491;42.694;23.314;2022-12-20T09:33:00;96724.34;;;17.28;21.13
70127;BME280;57491;42.694;23.314;2022-12-20T09:35:27;96716.22;;;16.86;22.54
70127;BME280;57491;42.694;23.314;2022-12-20T09:37:55;96716.47;;;17.28;21.39
70127;BME280;57491;42.694;23.314;2022-12-20T09:40:23;96712.66;;;17.46;21.31
70127;BME280;57491;42.694;23.314;2022-12-20T09:42:53;96714.56;;;18.17;20.09
70127;BME280;57491;42.694;23.314;2022-12-20T09:45:25;96709.47;;;17.94;20.91
70127;BME280;57491;42.694;23.314;2022-12-20T09:47:52;96707.34;;;18.40;20.74
70127;BME280;57491;42.694;23.314;2022-12-20T09:50:35;96710.47;;;19.21;20.47
70127;BME280;57491;42.694;23.314;2022-12-20T09:53:13;96692.66;;;19.57;19.01
70127;BME280;57491;42.694;23.314;2022-12-20T09:55:47;96682.25;;;19.90;18.62
70127;BME280;57491;42.694;23.314;2022-12-20T09:58:25;96680.56;;;20.49;18.36
70127;BME280;57491;42.694;23.314;2022-12-20T10:00:55;96682.38;;;21.48;17.01
70127;BME280;57491;42.694;23.314;2022-12-20T10:03:25;96663.72;;;20.57;17.26
70127;BME280;57491;42.694;23.314;2022-12-20T10:05:55;96678.75;;;20.63;17.23
70127;BME280;57491;42.694;23.314;2022-12-20T10:08:36;96668.97;;;20.37;17.04
70127;BME280;57491;42.694;23.314;2022-12-20T10:11:10;96667.09;;;19.57;17.72
70127;BME280;57491;42.694;23.314;2022-12-20T10:13:54;96659.25;;;20.90;17.96
70127;BME280;57491;42.694;23.314;2022-12-20T10:16:34;96651.25;;;21.43;16.33
70127;BME280;57491;42.694;23.314;2022-12-20T10:19:17;96642.53;;;21.23;16.37
70127;BME280;57491;42.694;23.314;2022-12-20T10:21:52;96628.53;;;21.73;16.59
70127;BME280;57491;42.694;23.314;2022-12-20T10:24:25;96629.44;;;22.37;15.25
70127;BME280;57491;42.694;23.314;2022-12-20T10:26:53;96618.78;;;20.97;16.43
70127;BME280;57491;42.694;23.314;2022-12-20T10:29:20;96599.00;;;20.00;16.99
70127;BME280;57491;42.694;23.314;2022-12-20T10:31:50;96601.03;;;19.98;16.91
70127;BME280;57491;42.694;23.314;2022-12-20T10:34:18;96593.81;;;19.53;18.12
70127;BME280;57491;42.694;23.314;2022-12-20T10:36:47;96592.34;;;20.83;16.59
70127;BME280;57491;42.694;23.314;2022-12-20T10:39:16;96590.31;;;20.85;16.84
70127;BME280;57491;42.694;23.314;2022-12-20T10:41:48;96579.22;;;21.34;15.85
70127;BME280;57491;42.694;23.314;2022-12-20T10:44:19;96577.31;;;20.84;16.15
70127;BME280;57491;42.694;23.314;2022-12-20T10:46:51;96560.03;;;20.22;17.33
70127;BME280;57491;42.694;23.314;2022-12-20T10:49:22;96563.63;;;19.75;17.15
70127;BME280;57491;42.694;23.314;2022-12-20T10:51:53;96559.84;;;20.37;16.37
70127;BME280;57491;42.694;23.314;2022-12-20T10:54:24;96563.09;;;20.13;16.56
70127;BME280;57491;42.694;23.314;2022-12-20T10:56:55;96543.56;;;20.00;16.88
70127;BME280;57491;42.694;23.314;2022-12-20T10:59:29;96549.47;;;20.29;16.68
70127;BME280;57491;42.694;23.314;2022-12-20T11:01:58;96553.69;;;20.96;16.14
70127;BME280;57491;42.694;23.314;2022-12-20T11:04:27;96552.63;;;21.03;15.72
70127;BME280;57491;42.694;23.314;2022-12-20T11:06:55;96545.78;;;21.85;15.01
70127;BME280;57491;42.694;23.314;2022-12-20T11:09:27;96548.84;;;21.44;15.73
70127;BME280;57491;42.694;23.314;2022-12-20T11:12:00;96537.19;;;21.07;15.82
70127;BME280;57491;42.694;23.314;2022-12-20T11:14:28;96531.31;;;21.49;15.94
70127;BME280;57491;42.694;23.314;2022-12-20T11:16:57;96521.53;;;20.99;15.96
70127;BME280;57491;42.694;23.314;2022-12-20T11:19:53;96532.31;;;19.52;17.03
70127;BME280;57491;42.694;23.314;2022-12-20T11:22:33;96523.06;;;20.02;17.15
70127;BME280;57491;42.694;23.314;2022-12-20T11:25:19;96518.16;;;21.43;16.38
70127;BME280;57491;42.694;23.314;2022-12-20T11:28:09;96507.47;;;21.94;15.63
70127;BME280;57491;42.694;23.314;2022-12-20T11:30:44;96512.22;;;22.59;14.97
70127;BME280;57491;42.694;23.314;2022-12-20T11:33:37;96501.88;;;23.42;14.80
70127;BME280;57491;42.694;23.314;2022-12-20T11:36:14;96507.47;;;23.23;14.29
70127;BME280;57491;42.694;23.314;2022-12-20T11:38:58;96509.28;;;22.67;14.54
70127;BME280;57491;42.694;23.314;2022-12-20T11:41:34;96486.06;;;21.64;15.26
70127;BME280;57491;42.694;23.314;2022-12-20T11:44:13;96505.56;;;22.93;14.35
70127;BME280;57491;42.694;23.314;2022-12-20T11:46:55;96494.13;;;23.11;14.49
70127;BME280;57491;42.694;23.314;2022-12-20T11:49:47;96462.94;;;22.09;14.48
70127;BME280;57491;42.694;23.314;2022-12-20T11:52:24;96484.66;;;21.61;14.60
70127;BME280;57491;42.694;23.314;2022-12-20T11:55:01;96486.13;;;21.06;15.62
70127;BME280;57491;42.694;23.314;2022-12-20T11:57:36;96485.13;;;21.01;16.51
70127;BME280;57491;42.694;23.314;2022-12-20T12:02:42;96478.34;;;19.48;16.65
70127;BME280;57491;42.694;23.314;2022-12-20T12:05:17;96476.22;;;19.31;17.59
70127;BME280;57491;42.694;23.314;2022-12-20T12:07:49;96474.09;;;19.67;17.05
70127;BME280;57491;42.694;23.314;2022-12-20T12:10:22;96477.53;;;20.27;16.20
70127;BME280;57491;42.694;23.314;2022-12-20T12:12:57;96472.06;;;21.19;15.63
70127;BME280;57491;42.694;23.314;2022-12-20T12:15:32;96466.00;;;22.31;14.74
70127;BME280;57491;42.694;23.314;2022-12-20T12:18:05;96460.78;;;22.85;14.28
70127;BME280;57491;42.694;23.314;2022-12-20T12:20:43;96462.16;;;23.54;14.11
70127;BME280;57491;42.694;23.314;2022-12-20T12:23:18;96455.56;;;23.56;13.74
70127;BME280;57491;42.694;23.314;2022-12-20T12:25:48;96457.19;;;24.11;13.69
70127;BME280;57491;42.694;23.314;2022-12-20T12:28:18;96431.72;;;24.96;13.04
70127;BME280;57491;42.694;23.314;2022-12-20T12:30:49;96458.28;;;24.44;13.57
70127;BME280;57491;42.694;23.314;2022-12-20T12:33:23;96448.19;;;24.70;13.13
70127;BME280;57491;42.694;23.314;2022-12-20T12:36:13;96457.88;;;25.84;12.50
70127;BME280;57491;42.694;23.314;2022-12-20T12:44:55;96448.94;;;26.24;10.94
70127;BME280;57491;42.694;23.314;2022-12-20T12:47:28;96437.44;;;26.78;11.05
70127;BME280;57491;42.694;23.314;2022-12-20T12:50:01;96450.38;;;27.83;10.83
70127;BME280;57491;42.694;23.314;2022-12-20T12:52:42;96445.38;;;27.60;10.08
70127;BME280;57491;42.694;23.314;2022-12-20T12:55:52;96446.31;;;27.76;10.58
70127;BME280;57491;42.694;23.314;2022-12-20T12:58:37;96430.56;;;26.44;10.84
70127;BME280;57491;42.694;23.314;2022-12-20T13:01:08;96430.41;;;26.17;11.24
70127;BME280;57491;42.694;23.314;2022-12-20T13:03:42;96413.22;;;27.01;10.75
70127;BME280;57491;42.694;23.314;2022-12-20T13:06:53;96424.28;;;27.64;10.57
70127;BME280;57491;42.694;23.314;2022-12-20T13:09:38;96418.69;;;27.17;10.53
70127;BME280;57491;42.694;23.314;2022-12-20T13:15:48;96412.47;;;27.33;10.59
70127;BME280;57491;42.694;23.314;2022-12-20T13:18:21;96415.41;;;27.58;10.27
70127;BME280;57491;42.694;23.314;2022-12-20T13:26:59;96410.63;;;25.96;10.97
70127;BME280;57491;42.694;23.314;2022-12-20T13:29:33;96399.47;;;25.21;11.27
70127;BME280;57491;42.694;23.314;2022-12-20T13:35:30;96400.63;;;24.85;11.65